Anderson, South Carolina
Current Conditions -  °F | °C
As of 5:56 AM on Friday 19 Dec 2014 (Local Time) from KAND Reporting Station
Clear Clear  
Wind Chill:   Ceiling: Unl
Heat Index:   Visibility: 10mi
Dew Point: -1°   Wind: 0mph
Humidity: 82%   Direction: NA
Pressure: 30.1"   Gusts: NA
Location:  34.5°N, 82.65°W
Report Text: KAND 191056Z AUTO 00000KT 10SM CLR 02/M01 A3010 RMK AO2 SLP191 T00221006
Loading
Personal Weather Stations






























Interactive Weather Map New forecast layout! Learn more

10-Day Weather Forecast

Advertisements
Track Severe Weather on mobile